createdAt,value
2018-02-16T00:01:45.764Z,4.30
2018-02-16T00:04:13.361Z,4.30
2018-02-16T00:06:40.978Z,4.30
2018-02-16T00:09:08.529Z,4.30
2018-02-16T00:11:36.590Z,4.30
2018-02-16T00:14:04.185Z,4.30
2018-02-16T00:16:31.998Z,4.30
2018-02-16T00:18:59.918Z,4.30
2018-02-16T00:21:27.732Z,4.20
2018-02-16T00:23:55.345Z,4.20
2018-02-16T00:26:22.918Z,4.20
2018-02-16T00:28:50.481Z,4.20
2018-02-16T00:31:19.017Z,4.20
2018-02-16T00:33:47.507Z,4.20
2018-02-16T00:36:17.253Z,4.20
2018-02-16T00:38:45.139Z,4.20
2018-02-16T00:41:12.785Z,4.20
2018-02-16T00:43:40.431Z,4.20
2018-02-16T00:46:08.801Z,4.20
2018-02-16T00:48:36.964Z,4.20
2018-02-16T00:51:04.830Z,4.20
2018-02-16T00:53:33.682Z,4.30
2018-02-16T00:56:02.715Z,4.20
2018-02-16T00:58:30.392Z,4.20
2018-02-16T01:00:59.320Z,4.20
2018-02-16T01:03:28.757Z,4.20
2018-02-16T01:05:56.405Z,4.20
2018-02-16T01:08:23.981Z,4.20
2018-02-16T01:10:51.549Z,4.20
2018-02-16T01:13:19.149Z,4.10
2018-02-16T01:15:47.510Z,4.10
2018-02-16T01:18:15.377Z,4.10
2018-02-16T01:20:42.956Z,4.10
2018-02-16T01:23:11.353Z,4.10
2018-02-16T01:25:38.938Z,4.10
2018-02-16T01:28:07.166Z,4.00
2018-02-16T01:30:34.777Z,4.00
2018-02-16T01:33:02.330Z,3.90
2018-02-16T01:35:29.919Z,3.90
2018-02-16T01:37:57.480Z,4.10
2018-02-16T01:40:25.038Z,4.00
2018-02-16T01:42:52.627Z,4.10
2018-02-16T01:45:20.230Z,4.10
2018-02-16T01:47:48.623Z,4.10
2018-02-16T01:50:16.216Z,4.10
2018-02-16T01:52:44.417Z,4.10
2018-02-16T01:55:12.006Z,4.00
2018-02-16T01:57:39.935Z,4.00
2018-02-16T02:00:07.508Z,4.00
2018-02-16T02:02:35.098Z,3.90
2018-02-16T02:05:03.535Z,3.90
2018-02-16T02:07:31.096Z,3.90
2018-02-16T02:09:58.683Z,3.90
2018-02-16T02:12:27.012Z,4.00
2018-02-16T02:14:55.381Z,3.90
2018-02-16T02:17:23.166Z,3.90
2018-02-16T02:19:50.741Z,3.80
2018-02-16T02:22:18.301Z,3.90
2018-02-16T02:24:46.549Z,3.90
2018-02-16T02:27:14.877Z,3.90
2018-02-16T02:29:42.460Z,3.90
2018-02-16T02:32:10.061Z,3.80
2018-02-16T02:34:37.646Z,3.70
2018-02-16T02:37:05.324Z,3.60
2018-02-16T02:39:32.914Z,3.50
2018-02-16T02:42:00.787Z,3.50
2018-02-16T02:44:28.349Z,3.40
2018-02-16T02:46:55.910Z,3.40
2018-02-16T02:49:23.497Z,3.30
2018-02-16T02:51:51.079Z,3.40
2018-02-16T02:54:19.490Z,3.20
2018-02-16T02:56:47.050Z,3.20
2018-02-16T02:59:14.655Z,3.20
2018-02-16T03:01:42.446Z,3.20
2018-02-16T03:04:10.614Z,3.30
2018-02-16T03:06:38.174Z,3.20
2018-02-16T03:09:06.512Z,3.20
2018-02-16T03:11:34.137Z,3.20
2018-02-16T03:14:02.473Z,3.30
2018-02-16T03:16:30.074Z,3.30
2018-02-16T03:18:58.408Z,3.30
2018-02-16T03:21:25.972Z,3.30
2018-02-16T03:23:53.555Z,3.30
2018-02-16T03:26:22.357Z,3.20
2018-02-16T03:28:50.703Z,3.10
2018-02-16T03:31:18.285Z,3.10
2018-02-16T03:33:45.874Z,3.20
2018-02-16T03:36:13.482Z,3.30
2018-02-16T03:38:41.472Z,3.20
2018-02-16T03:41:09.446Z,3.20
2018-02-16T03:43:37.007Z,3.20
2018-02-16T03:46:04.568Z,3.30
2018-02-16T03:48:32.158Z,3.40
2018-02-16T03:51:00.507Z,3.50
2018-02-16T03:53:28.072Z,3.50
2018-02-16T03:55:55.679Z,3.40
2018-02-16T03:58:23.242Z,3.40
2018-02-16T04:00:51.592Z,3.50
2018-02-16T04:03:19.182Z,3.50
2018-02-16T04:05:47.504Z,3.30
2018-02-16T04:08:15.094Z,3.30
2018-02-16T04:10:43.444Z,2.50
2018-02-16T04:13:11.670Z,3.10
2018-02-16T04:15:40.029Z,3.00
2018-02-16T04:18:09.451Z,3.00
2018-02-16T04:20:37.018Z,3.00
2018-02-16T04:23:04.575Z,3.00
2018-02-16T04:25:32.260Z,3.00
2018-02-16T04:28:00.645Z,3.00
2018-02-16T04:30:28.229Z,3.00
2018-02-16T04:32:55.873Z,3.10
2018-02-16T04:35:24.250Z,3.20
2018-02-16T04:37:52.679Z,3.20
2018-02-16T04:40:20.904Z,3.20
2018-02-16T04:42:48.490Z,3.30
2018-02-16T04:45:16.061Z,3.20
2018-02-16T04:47:44.217Z,3.20
2018-02-16T04:50:11.777Z,3.10
2018-02-16T04:52:40.140Z,3.00
2018-02-16T04:55:08.325Z,3.00
2018-02-16T04:57:36.754Z,2.90
2018-02-16T05:00:04.313Z,2.90
2018-02-16T05:02:32.319Z,2.90
2018-02-16T05:04:59.871Z,2.80
2018-02-16T05:07:27.459Z,2.80
2018-02-16T05:09:55.042Z,2.80
2018-02-16T05:12:22.977Z,2.80
2018-02-16T05:14:50.569Z,2.90
2018-02-16T05:17:18.132Z,3.10
2018-02-16T05:19:46.590Z,2.90
2018-02-16T05:22:14.150Z,2.90
2018-02-16T05:24:41.891Z,2.90
2018-02-16T05:27:09.485Z,2.90
2018-02-16T05:29:37.045Z,2.80
2018-02-16T05:32:04.662Z,2.80
2018-02-16T05:34:32.239Z,2.80
2018-02-16T05:37:00.642Z,2.70
2018-02-16T05:39:28.250Z,2.70
2018-02-16T05:41:55.845Z,2.90
2018-02-16T05:44:24.021Z,3.10
2018-02-16T05:46:51.598Z,3.20
2018-02-16T05:49:19.168Z,3.20
2018-02-16T05:51:46.726Z,3.10
2018-02-16T05:54:15.730Z,3.00
2018-02-16T05:56:43.312Z,2.90
2018-02-16T05:59:10.870Z,2.90
2018-02-16T06:01:38.625Z,2.80
2018-02-16T06:04:06.231Z,2.80
2018-02-16T06:06:33.871Z,2.80
2018-02-16T06:09:02.309Z,3.00
2018-02-16T06:11:29.967Z,3.00
2018-02-16T06:13:57.546Z,3.10
2018-02-16T06:16:25.850Z,3.10
2018-02-16T06:18:53.518Z,3.30
2018-02-16T06:21:21.103Z,3.30
2018-02-16T06:23:49.451Z,3.30
2018-02-16T06:26:17.854Z,3.30
2018-02-16T06:28:46.209Z,3.40
2018-02-16T06:31:13.761Z,3.40
2018-02-16T06:33:41.374Z,3.40
2018-02-16T06:36:08.941Z,3.40
2018-02-16T06:38:37.265Z,3.20
2018-02-16T06:41:04.862Z,3.20
2018-02-16T06:43:32.477Z,3.10
2018-02-16T06:46:00.309Z,3.30
2018-02-16T06:48:28.668Z,3.30
2018-02-16T06:50:57.063Z,3.30
2018-02-16T06:53:24.671Z,3.30
2018-02-16T06:55:52.417Z,3.20
2018-02-16T06:58:20.058Z,3.20
2018-02-16T07:00:48.436Z,3.00
2018-02-16T07:03:17.143Z,3.00
2018-02-16T07:05:45.808Z,3.00
2018-02-16T07:08:14.136Z,3.00
2018-02-16T07:10:41.693Z,3.00
2018-02-16T07:13:10.045Z,3.20
2018-02-16T07:15:38.399Z,3.50
2018-02-16T07:18:05.962Z,3.50
2018-02-16T07:20:33.552Z,3.70
2018-02-16T07:23:01.129Z,3.80
2018-02-16T07:25:31.984Z,3.80
2018-02-16T07:27:59.559Z,3.80
2018-02-16T07:30:27.147Z,3.80
2018-02-16T07:32:56.090Z,3.50
2018-02-16T07:35:23.703Z,3.50
2018-02-16T07:37:52.066Z,3.40
2018-02-16T07:40:20.353Z,3.40
2018-02-16T07:42:47.985Z,3.30
2018-02-16T07:45:15.620Z,3.30
2018-02-16T07:47:44.826Z,3.30
2018-02-16T07:50:13.586Z,3.20
2018-02-16T07:52:41.171Z,3.20
2018-02-16T07:55:10.648Z,3.20
2018-02-16T07:57:38.902Z,3.20
2018-02-16T08:00:06.538Z,3.20
2018-02-16T08:02:34.892Z,3.10
2018-02-16T08:05:02.489Z,3.00
2018-02-16T08:07:30.108Z,3.00
2018-02-16T08:09:57.977Z,3.00
2018-02-16T08:12:25.955Z,3.00
2018-02-16T08:14:53.523Z,3.00
2018-02-16T08:17:21.081Z,3.00
2018-02-16T08:19:48.683Z,3.00
2018-02-16T08:22:16.287Z,3.00
2018-02-16T08:24:43.855Z,3.10
2018-02-16T08:27:11.699Z,3.20
2018-02-16T08:29:39.292Z,3.20
2018-02-16T08:32:06.901Z,3.20
2018-02-16T08:34:34.458Z,3.30
2018-02-16T08:37:02.808Z,3.40
2018-02-16T08:39:30.383Z,3.40
2018-02-16T08:41:59.643Z,3.50
2018-02-16T08:44:27.223Z,3.50
2018-02-16T08:46:54.848Z,3.60
2018-02-16T08:49:22.398Z,3.70
2018-02-16T08:51:50.904Z,3.80
2018-02-16T08:54:19.417Z,3.90
2018-02-16T08:56:48.837Z,4.00
2018-02-16T08:59:16.613Z,4.20
2018-02-16T09:01:45.288Z,4.40
2018-02-16T09:04:12.957Z,4.60
2018-02-16T09:06:41.886Z,4.80
2018-02-16T09:09:10.229Z,4.80
2018-02-16T09:11:37.821Z,4.80
2018-02-16T09:14:06.653Z,5.00
2018-02-16T09:16:35.657Z,4.90
2018-02-16T09:19:04.123Z,5.00
2018-02-16T09:21:31.748Z,5.10
2018-02-16T09:24:00.612Z,5.30
2018-02-16T09:26:28.190Z,5.20
2018-02-16T09:28:55.912Z,5.40
2018-02-16T09:31:25.334Z,5.50
2018-02-16T09:33:52.998Z,5.60
2018-02-16T09:36:22.305Z,5.70
2018-02-16T09:38:50.050Z,5.70
2018-02-16T09:41:19.394Z,5.60
2018-02-16T09:43:47.093Z,5.60
2018-02-16T09:46:15.414Z,5.60
2018-02-16T09:48:43.375Z,5.60
2018-02-16T09:51:11.875Z,5.70
2018-02-16T09:53:39.895Z,5.80
2018-02-16T09:56:07.514Z,5.90
2018-02-16T09:58:35.270Z,6.00
2018-02-16T10:01:03.875Z,6.10
2018-02-16T10:03:31.511Z,6.10
2018-02-16T10:05:59.092Z,6.20
2018-02-16T10:08:26.948Z,6.20
2018-02-16T10:10:54.595Z,6.40
2018-02-16T10:13:22.910Z,6.50
2018-02-16T10:15:50.589Z,6.60
2018-02-16T10:18:19.233Z,6.80
2018-02-16T10:20:46.899Z,6.80
2018-02-16T10:23:14.490Z,6.90
2018-02-16T10:25:42.042Z,7.00
2018-02-16T10:28:09.810Z,7.00
2018-02-16T10:30:37.404Z,7.10
2018-02-16T10:33:05.000Z,7.20
2018-02-16T10:35:32.594Z,7.20
2018-02-16T10:38:00.379Z,7.30
2018-02-16T10:40:28.113Z,7.40
2018-02-16T10:42:55.679Z,7.50
2018-02-16T10:45:23.475Z,7.50
2018-02-16T10:47:51.104Z,7.60
2018-02-16T10:50:18.717Z,7.70
2018-02-16T10:52:46.491Z,7.70
2018-02-16T10:55:14.092Z,7.80
2018-02-16T10:57:41.678Z,7.90
2018-02-16T11:00:09.555Z,8.00
2018-02-16T11:02:43.326Z,8.10
2018-02-16T11:05:12.717Z,8.20
2018-02-16T11:07:45.913Z,8.30
2018-02-16T11:10:13.863Z,8.40
2018-02-16T11:12:42.448Z,8.40
2018-02-16T11:15:10.805Z,8.50
2018-02-16T11:17:38.424Z,8.40
2018-02-16T11:20:05.978Z,8.50
2018-02-16T11:22:34.687Z,8.70
2018-02-16T11:25:02.322Z,8.70
2018-02-16T11:27:30.963Z,8.60
2018-02-16T11:29:58.573Z,8.60
2018-02-16T11:32:26.136Z,8.80
2018-02-16T11:34:54.484Z,9.00
2018-02-16T11:37:22.073Z,9.00
2018-02-16T11:39:49.665Z,9.00
2018-02-16T11:42:17.231Z,9.00
2018-02-16T11:44:45.138Z,9.10
2018-02-16T11:47:12.695Z,9.20
2018-02-16T11:49:40.277Z,9.20
2018-02-16T11:52:09.384Z,9.30
2018-02-16T11:54:38.450Z,9.30
2018-02-16T11:57:08.187Z,9.30
2018-02-16T11:59:35.750Z,9.50
2018-02-16T12:02:03.354Z,9.50
2018-02-16T12:04:33.057Z,9.80
2018-02-16T12:07:01.094Z,9.80
2018-02-16T12:09:28.695Z,9.70
2018-02-16T12:11:57.064Z,9.70
2018-02-16T12:14:24.629Z,9.70
2018-02-16T12:16:53.016Z,10.00
2018-02-16T12:19:20.628Z,10.00
2018-02-16T12:21:48.200Z,10.10
2018-02-16T12:24:15.842Z,10.20
2018-02-16T12:26:45.217Z,10.40
2018-02-16T12:29:12.852Z,10.50
2018-02-16T12:31:41.175Z,10.60
2018-02-16T12:34:08.785Z,10.60
2018-02-16T12:36:36.389Z,10.60
2018-02-16T12:39:04.030Z,10.50
2018-02-16T12:41:32.421Z,10.40
2018-02-16T12:44:00.773Z,10.40
2018-02-16T12:46:28.403Z,10.40
2018-02-16T12:48:55.993Z,10.50
2018-02-16T12:51:23.685Z,10.40
2018-02-16T12:53:52.876Z,10.50
2018-02-16T12:56:20.447Z,10.50
2018-02-16T12:58:48.050Z,10.60
2018-02-16T13:01:16.381Z,10.60
2018-02-16T13:03:44.308Z,10.60
2018-02-16T13:06:11.923Z,10.60
2018-02-16T13:08:39.631Z,10.70
2018-02-16T13:11:07.680Z,10.90
2018-02-16T13:13:35.386Z,11.00
2018-02-16T13:16:03.010Z,11.00
2018-02-16T13:18:32.242Z,11.10
2018-02-16T13:20:59.821Z,11.10
2018-02-16T13:23:27.576Z,11.10
2018-02-16T13:25:55.191Z,11.10
2018-02-16T13:28:23.797Z,11.10
2018-02-16T13:30:51.406Z,11.10
2018-02-16T13:33:18.990Z,11.20
2018-02-16T13:35:46.597Z,11.20
2018-02-16T13:38:14.271Z,11.30
2018-02-16T13:40:41.919Z,11.30
2018-02-16T13:43:10.367Z,11.40
2018-02-16T13:45:37.975Z,11.40
2018-02-16T13:48:05.995Z,11.50
2018-02-16T13:50:33.637Z,11.50
2018-02-16T13:53:01.318Z,11.50
2018-02-16T13:55:29.649Z,11.30
2018-02-16T13:57:58.023Z,11.20
2018-02-16T14:00:25.773Z,11.20
2018-02-16T14:02:53.379Z,11.30
2018-02-16T14:05:21.172Z,11.50
2018-02-16T14:07:48.817Z,11.60
2018-02-16T14:10:16.455Z,11.60
2018-02-16T14:12:44.849Z,11.70
2018-02-16T14:15:13.231Z,11.70
2018-02-16T14:17:40.916Z,11.80
2018-02-16T14:20:08.623Z,12.00
2018-02-16T14:22:36.959Z,12.80
2018-02-16T14:25:04.799Z,12.80
2018-02-16T14:27:32.414Z,13.60
2018-02-16T14:30:00.200Z,14.50
2018-02-16T14:32:27.956Z,15.00
2018-02-16T14:34:55.700Z,15.30
2018-02-16T14:37:23.320Z,15.70
2018-02-16T14:39:50.896Z,15.50
2018-02-16T14:42:18.474Z,16.00
2018-02-16T14:44:46.088Z,16.90
2018-02-16T14:47:15.483Z,17.70
2018-02-16T14:49:43.131Z,17.70
2018-02-16T14:52:10.860Z,18.00
2018-02-16T14:54:38.480Z,17.80
2018-02-16T14:57:06.254Z,17.20
2018-02-16T14:59:33.866Z,15.90
2018-02-16T15:02:01.520Z,14.70
2018-02-16T15:04:29.203Z,13.80
2018-02-16T15:06:56.815Z,13.20
2018-02-16T15:09:24.504Z,12.70
2018-02-16T15:11:52.204Z,12.50
2018-02-16T15:14:19.808Z,12.50
2018-02-16T15:16:47.390Z,12.50
2018-02-16T15:19:15.324Z,12.80
2018-02-16T15:21:42.894Z,13.60
2018-02-16T15:24:10.500Z,13.90
2018-02-16T15:26:38.058Z,14.40
2018-02-16T15:29:05.632Z,14.60
2018-02-16T15:31:33.240Z,14.10
2018-02-16T15:34:00.877Z,13.60
2018-02-16T15:36:28.514Z,13.80
2018-02-16T15:38:56.107Z,13.90
2018-02-16T15:41:23.700Z,13.50
2018-02-16T15:43:51.290Z,13.10
2018-02-16T15:46:18.896Z,12.80
2018-02-16T15:48:46.901Z,12.60
2018-02-16T15:51:14.488Z,12.80
2018-02-16T15:53:42.131Z,12.90
2018-02-16T15:56:09.704Z,12.90
2018-02-16T15:58:38.246Z,12.60
2018-02-16T16:01:05.845Z,12.60
2018-02-16T16:03:33.643Z,12.30
2018-02-16T16:06:01.402Z,12.10
2018-02-16T16:08:29.770Z,11.50
2018-02-16T16:10:57.373Z,11.50
2018-02-16T16:13:25.006Z,11.20
2018-02-16T16:15:52.588Z,11.00
2018-02-16T16:18:20.250Z,10.80
2018-02-16T16:20:47.855Z,10.60
2018-02-16T16:23:15.438Z,10.40
2018-02-16T16:25:43.046Z,10.40
2018-02-16T16:28:10.602Z,10.30
2018-02-16T16:30:38.894Z,10.20
2018-02-16T16:33:06.476Z,10.10
2018-02-16T16:35:34.049Z,10.00
2018-02-16T16:38:01.630Z,9.90
2018-02-16T16:40:29.258Z,9.90
2018-02-16T16:42:57.141Z,9.80
2018-02-16T16:45:24.764Z,9.70
2018-02-16T16:47:52.460Z,9.60
2018-02-16T16:50:20.140Z,9.50
2018-02-16T16:52:47.742Z,9.40
2018-02-16T16:55:15.360Z,9.40
2018-02-16T16:57:42.956Z,9.30
2018-02-16T17:00:10.609Z,9.10
2018-02-16T17:02:38.933Z,8.90
2018-02-16T17:05:06.541Z,8.90
2018-02-16T17:07:34.154Z,8.80
2018-02-16T17:10:01.770Z,8.70
2018-02-16T17:12:29.395Z,8.60
2018-02-16T17:14:57.073Z,8.50
2018-02-16T17:17:24.698Z,8.30
2018-02-16T17:19:53.074Z,8.00
2018-02-16T17:22:20.656Z,8.00
2018-02-16T17:24:48.326Z,7.90
2018-02-16T17:27:17.001Z,7.80
2018-02-16T17:29:45.404Z,7.70
2018-02-16T17:32:13.004Z,7.70
2018-02-16T17:34:40.602Z,7.60
2018-02-16T17:37:08.940Z,7.40
2018-02-16T17:39:36.967Z,7.40
2018-02-16T17:42:04.677Z,7.30
2018-02-16T17:44:32.359Z,7.30
2018-02-16T17:47:01.730Z,7.20
2018-02-16T17:49:29.480Z,7.10
2018-02-16T17:51:57.185Z,7.10
2018-02-16T17:54:27.009Z,7.10
2018-02-16T17:56:55.462Z,7.00
2018-02-16T17:59:23.056Z,7.00
2018-02-16T18:01:50.866Z,6.90
2018-02-16T18:04:18.553Z,6.90
2018-02-16T18:06:46.197Z,6.90
2018-02-16T18:09:13.802Z,6.80
2018-02-16T18:11:41.386Z,6.80
2018-02-16T18:14:09.740Z,6.70
2018-02-16T18:16:38.401Z,6.60
2018-02-16T18:19:05.982Z,6.60
2018-02-16T18:21:34.043Z,6.60
2018-02-16T18:24:02.326Z,6.60
2018-02-16T18:26:29.908Z,6.60
2018-02-16T18:28:57.511Z,6.50
2018-02-16T18:31:25.122Z,6.50
2018-02-16T18:33:52.850Z,6.50
2018-02-16T18:36:20.477Z,6.50
2018-02-16T18:38:48.102Z,6.40
2018-02-16T18:41:15.701Z,6.40
2018-02-16T18:43:43.403Z,6.40
2018-02-16T18:46:11.902Z,6.40
2018-02-16T18:48:39.494Z,6.30
2018-02-16T18:51:07.076Z,6.30
2018-02-16T18:53:34.776Z,6.30
2018-02-16T18:56:02.490Z,6.30
2018-02-16T18:58:30.102Z,6.20
2018-02-16T19:00:57.676Z,6.20
2018-02-16T19:03:27.124Z,6.20
2018-02-16T19:05:54.728Z,6.10
2018-02-16T19:08:22.352Z,6.10
2018-02-16T19:10:49.936Z,6.10
2018-02-16T19:13:17.564Z,6.10
2018-02-16T19:15:45.190Z,6.10
2018-02-16T19:18:12.828Z,6.00
2018-02-16T19:20:40.422Z,6.00
2018-02-16T19:23:08.819Z,5.90
2018-02-16T19:25:36.526Z,5.90
2018-02-16T19:28:04.132Z,5.90
2018-02-16T19:30:31.728Z,5.80
2018-02-16T19:32:59.318Z,5.80
2018-02-16T19:35:26.914Z,5.80
2018-02-16T19:37:54.528Z,5.80
2018-02-16T19:40:22.094Z,5.80
2018-02-16T19:42:49.712Z,5.70
2018-02-16T19:45:17.387Z,5.70
2018-02-16T19:47:45.076Z,5.60
2018-02-16T19:50:12.670Z,5.60
2018-02-16T19:52:40.238Z,5.60
2018-02-16T19:55:07.908Z,5.60
2018-02-16T19:57:35.495Z,5.60
2018-02-16T20:00:03.105Z,5.60
2018-02-16T20:02:31.642Z,5.60
2018-02-16T20:05:00.062Z,5.60
2018-02-16T20:07:27.671Z,5.60
2018-02-16T20:09:55.297Z,5.60
2018-02-16T20:12:22.885Z,5.60
2018-02-16T20:14:51.492Z,5.50
2018-02-16T20:17:19.891Z,5.50
2018-02-16T20:19:47.460Z,5.60
2018-02-16T20:22:16.039Z,5.50
2018-02-16T20:24:43.684Z,5.50
2018-02-16T20:27:12.224Z,5.50
2018-02-16T20:29:39.966Z,5.50
2018-02-16T20:32:07.595Z,5.50
2018-02-16T20:34:35.376Z,5.50
2018-02-16T20:37:03.436Z,5.50
2018-02-16T20:39:31.284Z,5.50
2018-02-16T20:41:58.942Z,5.50
2018-02-16T20:44:26.646Z,5.40
2018-02-16T20:46:54.271Z,5.40
2018-02-16T20:49:21.913Z,5.40
2018-02-16T20:51:49.590Z,5.40
2018-02-16T20:54:17.251Z,5.30
2018-02-16T20:56:44.856Z,5.30
2018-02-16T20:59:12.590Z,5.30
2018-02-16T21:01:40.159Z,5.30
2018-02-16T21:04:07.834Z,5.20
2018-02-16T21:06:35.712Z,5.20
2018-02-16T21:09:03.481Z,5.20
2018-02-16T21:11:31.058Z,5.20
2018-02-16T21:13:59.661Z,5.10
2018-02-16T21:16:27.384Z,5.10
2018-02-16T21:18:54.983Z,5.10
2018-02-16T21:21:22.589Z,5.10
2018-02-16T21:23:50.372Z,5.10
2018-02-16T21:26:18.056Z,5.10
2018-02-16T21:28:45.663Z,5.10
2018-02-16T21:31:13.259Z,5.10
2018-02-16T21:33:41.019Z,5.10
2018-02-16T21:36:08.886Z,5.10
2018-02-16T21:38:36.764Z,5.10
2018-02-16T21:41:05.281Z,5.00
2018-02-16T21:43:32.887Z,5.00
2018-02-16T21:46:00.486Z,5.00
2018-02-16T21:48:28.344Z,5.00
2018-02-16T21:50:55.954Z,5.00
2018-02-16T21:53:24.394Z,5.00
2018-02-16T21:55:55.808Z,5.00
2018-02-16T21:58:24.184Z,4.90
2018-02-16T22:00:51.781Z,4.90
2018-02-16T22:03:19.677Z,4.90
2018-02-16T22:05:47.277Z,4.80
2018-02-16T22:08:15.661Z,4.80
2018-02-16T22:10:43.292Z,4.80
2018-02-16T22:13:10.883Z,4.80
2018-02-16T22:15:39.210Z,4.70
2018-02-16T22:18:07.099Z,4.70
2018-02-16T22:20:34.729Z,4.70
2018-02-16T22:23:02.305Z,4.70
2018-02-16T22:25:29.935Z,4.60
2018-02-16T22:27:58.346Z,4.60
2018-02-16T22:30:26.320Z,4.60
2018-02-16T22:32:53.982Z,4.50
2018-02-16T22:35:21.545Z,4.50
2018-02-16T22:37:49.438Z,4.40
2018-02-16T22:40:17.121Z,4.40
2018-02-16T22:42:44.729Z,4.40
2018-02-16T22:45:12.344Z,4.30
2018-02-16T22:47:39.938Z,4.30
2018-02-16T22:50:07.581Z,4.30
2018-02-16T22:52:35.228Z,4.30
2018-02-16T22:55:02.829Z,4.30
2018-02-16T22:57:31.228Z,4.20
2018-02-16T22:59:58.847Z,4.20
2018-02-16T23:02:27.950Z,4.20
2018-02-16T23:04:55.542Z,4.20
2018-02-16T23:07:23.163Z,4.20
2018-02-16T23:09:50.791Z,4.20
2018-02-16T23:12:18.414Z,4.20
2018-02-16T23:14:46.003Z,4.20
2018-02-16T23:17:13.620Z,4.20
2018-02-16T23:19:41.305Z,4.30
2018-02-16T23:22:09.672Z,4.30
2018-02-16T23:24:38.046Z,4.30
2018-02-16T23:27:06.532Z,4.30
2018-02-16T23:29:34.152Z,4.30
2018-02-16T23:32:01.816Z,4.30
2018-02-16T23:34:29.410Z,4.30
2018-02-16T23:36:57.006Z,4.30
2018-02-16T23:39:24.961Z,4.20
2018-02-16T23:41:52.732Z,4.20
2018-02-16T23:44:21.181Z,4.10
2018-02-16T23:46:48.934Z,4.10
2018-02-16T23:49:18.262Z,4.20
2018-02-16T23:51:45.874Z,4.20
2018-02-16T23:54:13.502Z,4.20
2018-02-16T23:56:41.295Z,4.30
2018-02-16T23:59:08.876Z,4.30
